Time;durP1;ratioP1;P1;durP2;ratioP2;P2;SDS_P1;SDS_P2;PMS_P1;PMS_P2;Temp;Humidity;BMP_temperature;BMP_pressure;BME280_temperature;BME280_humidity;BME280_pressure;Samples;Min_cycle;Max_cycle;Signal;HPM_P1;HPM_P2
2022/11/19 00:03:08;;;;;;;16.70;10.27;;;5.60;99.90;;;;;;7323253;32;20180;-79
2022/11/19 00:07:10;;;;;;;14.57;9.52;;;5.60;99.90;;;;;;7332607;32;20119;-79
2022/11/19 00:12:53;;;;;;;13.62;9.00;;;5.60;99.90;;;;;;7345865;32;20242;-80
2022/11/19 00:15:42;;;;;;;10.68;8.50;;;5.70;99.90;;;;;;7321318;32;20214;-80
2022/11/19 00:19:44;;;;;;;11.82;8.75;;;5.70;99.90;;;;;;7338913;32;20156;-80
2022/11/19 00:23:46;;;;;;;16.40;9.27;;;5.60;99.90;;;;;;7310923;32;20155;-79
2022/11/19 00:27:48;;;;;;;15.13;9.48;;;5.50;99.90;;;;;;7315372;32;20446;-79
2022/11/19 00:31:49;;;;;;;13.23;9.15;;;5.50;99.90;;;;;;7326050;32;20202;-79
2022/11/19 00:35:55;;;;;;;14.98;9.35;;;5.50;99.90;;;;;;7327430;32;20126;-80
2022/11/19 00:39:57;;;;;;;14.87;9.10;;;5.30;99.90;;;;;;7316036;32;20119;-79
2022/11/19 00:43:58;;;;;;;15.07;8.45;;;5.20;99.90;;;;;;7336835;32;20148;-79
2022/11/19 00:48:00;;;;;;;12.57;7.85;;;5.10;99.90;;;;;;7331073;32;20206;-79
2022/11/19 00:52:02;;;;;;;10.23;6.80;;;5.20;99.90;;;;;;7329567;32;20217;-79
2022/11/19 00:56:07;;;;;;;10.18;6.40;;;5.10;99.90;;;;;;7341935;32;20558;-79
2022/11/19 01:00:10;;;;;;;12.32;7.30;;;5.00;99.90;;;;;;7328092;32;20628;-79
2022/11/19 01:04:11;;;;;;;12.50;6.40;;;5.00;99.90;;;;;;7337736;32;20222;-79
2022/11/19 01:08:13;;;;;;;10.70;6.75;;;4.90;99.90;;;;;;7335812;32;20509;-79
2022/11/19 01:12:15;;;;;;;11.07;6.97;;;4.90;99.90;;;;;;7326762;32;20137;-78
2022/11/19 01:16:21;;;;;;;9.93;6.82;;;4.90;99.90;;;;;;7332076;32;20137;-78
2022/11/19 01:20:23;;;;;;;10.57;6.33;;;4.90;99.90;;;;;;7326850;32;20183;-78
2022/11/19 01:24:25;;;;;;;9.10;6.22;;;4.80;99.90;;;;;;7335577;32;20257;-79
2022/11/19 01:28:29;;;;;;;9.40;6.30;;;4.70;99.90;;;;;;7344664;32;20143;-78
2022/11/19 01:32:30;;;;;;;10.27;6.30;;;4.60;99.90;;;;;;7349960;32;20187;-78
2022/11/19 01:36:32;;;;;;;11.23;6.70;;;4.50;99.90;;;;;;7335283;32;20226;-79
2022/11/19 01:40:42;;;;;;;10.50;6.93;;;4.60;99.90;;;;;;7340835;32;20563;-78
2022/11/19 01:45:01;;;;;;;11.93;7.32;;;4.50;99.90;;;;;;7335306;32;20179;-78
2022/11/19 01:49:16;;;;;;;11.95;7.10;;;4.30;99.90;;;;;;7339232;32;20198;-79
2022/11/19 01:53:21;;;;;;;12.18;7.53;;;4.30;99.90;;;;;;7308595;32;20162;-79
2022/11/19 01:57:22;;;;;;;12.40;7.87;;;4.20;99.90;;;;;;7330783;32;20605;-79
2022/11/19 02:01:24;;;;;;;13.48;8.07;;;4.00;99.90;;;;;;7339442;32;20137;-79
2022/11/19 02:05:27;;;;;;;12.55;7.68;;;4.10;99.90;;;;;;7324039;32;20524;-79
2022/11/19 02:09:29;;;;;;;12.82;7.97;;;4.10;99.90;;;;;;7334391;32;20183;-79
2022/11/19 02:13:40;;;;;;;16.58;8.85;;;3.90;99.90;;;;;;7329008;32;20681;-79
2022/11/19 02:18:01;;;;;;;17.33;10.55;;;3.90;99.90;;;;;;7322197;32;20258;-79
2022/11/19 02:22:19;;;;;;;22.35;12.02;;;3.90;99.90;;;;;;7337456;32;20267;-80
2022/11/19 02:26:44;;;;;;;19.75;12.27;;;3.70;99.90;;;;;;7333224;32;20125;-79
2022/11/19 02:30:50;;;;;;;23.27;13.35;;;3.70;99.90;;;;;;7343383;32;20205;-79
2022/11/19 02:34:57;;;;;;;18.05;11.63;;;3.70;99.90;;;;;;7322598;32;20202;-80
2022/11/19 02:39:06;;;;;;;23.25;13.48;;;3.60;99.90;;;;;;7326027;32;20224;-80
2022/11/19 02:43:18;;;;;;;20.58;12.25;;;3.60;99.90;;;;;;7326777;32;20134;-80
2022/11/19 02:47:24;;;;;;;20.92;11.45;;;3.60;99.90;;;;;;7342187;32;20182;-81
2022/11/19 02:51:25;;;;;;;22.40;11.98;;;3.60;99.90;;;;;;7340357;32;20119;-80
2022/11/19 02:55:27;;;;;;;22.35;13.43;;;3.60;99.90;;;;;;7327720;32;20168;-80
2022/11/19 03:04:30;;;;;;;26.80;14.50;;;3.60;99.90;;;;;;7325801;32;20222;-80
2022/11/19 03:08:32;;;;;;;25.45;13.80;;;3.50;99.90;;;;;;7322470;32;20116;-80
2022/11/19 03:12:44;;;;;;;25.77;15.02;;;3.50;99.90;;;;;;7328865;32;20171;-80
2022/11/19 03:17:48;;;;;;;25.25;14.13;;;3.50;99.90;;;;;;7334754;32;20155;-81
2022/11/19 03:21:55;;;;;;;26.45;14.85;;;3.40;99.90;;;;;;7334510;32;20182;-80
2022/11/19 03:26:06;;;;;;;26.58;14.98;;;3.30;99.90;;;;;;7343646;32;20156;-80
2022/11/19 03:30:09;;;;;;;31.65;16.08;;;3.30;99.90;;;;;;7330637;32;20116;-81
2022/11/19 03:34:17;;;;;;;27.50;17.23;;;3.30;99.90;;;;;;7330319;32;20108;-80
2022/11/19 03:38:25;;;;;;;30.75;17.85;;;3.20;99.90;;;;;;7333472;32;20135;-80
2022/11/19 03:42:29;;;;;;;27.95;17.70;;;3.20;99.90;;;;;;7337196;32;20107;-80
2022/11/19 03:46:34;;;;;;;29.65;18.80;;;3.20;99.90;;;;;;7329590;32;20188;-80
2022/11/19 03:50:47;;;;;;;28.67;17.65;;;3.20;99.90;;;;;;7329630;32;20311;-80
2022/11/19 03:54:49;;;;;;;30.67;18.70;;;3.20;99.90;;;;;;7349192;32;20107;-80
2022/11/19 03:58:52;;;;;;;31.20;19.20;;;3.20;99.90;;;;;;7327042;32;20111;-80
2022/11/19 04:02:54;;;;;;;31.60;19.52;;;3.10;99.90;;;;;;7337013;32;20099;-80
2022/11/19 04:06:56;;;;;;;34.38;20.12;;;3.10;99.90;;;;;;7335016;32;20138;-80
2022/11/19 04:10:58;;;;;;;33.45;20.95;;;3.20;99.90;;;;;;7332255;32;20487;-80
2022/11/19 04:15:01;;;;;;;33.75;20.00;;;3.20;99.90;;;;;;7337888;32;20103;-80
2022/11/19 04:19:03;;;;;;;31.83;19.83;;;3.10;99.90;;;;;;7344057;32;20210;-80
2022/11/19 04:23:05;;;;;;;32.95;20.15;;;3.10;99.90;;;;;;7336851;32;20664;-79
2022/11/19 04:27:07;;;;;;;29.52;18.50;;;3.20;99.90;;;;;;7345537;32;20119;-79
2022/11/19 04:31:09;;;;;;;29.48;19.15;;;3.10;99.90;;;;;;7333704;32;20780;-79
2022/11/19 04:35:20;;;;;;;29.98;19.65;;;3.10;99.90;;;;;;7326719;32;20111;-79
2022/11/19 04:39:22;;;;;;;31.67;19.35;;;3.10;99.90;;;;;;7333477;32;20128;-79
2022/11/19 04:43:24;;;;;;;30.77;19.67;;;3.10;99.90;;;;;;7321482;32;20214;-80
2022/11/19 04:47:26;;;;;;;30.23;18.90;;;3.10;99.90;;;;;;7319982;32;20190;-79
2022/11/19 04:51:28;;;;;;;31.33;19.77;;;3.00;99.90;;;;;;7333439;32;20120;-79
2022/11/19 04:55:29;;;;;;;34.35;20.08;;;2.90;99.90;;;;;;7324077;32;20501;-79
2022/11/19 04:59:31;;;;;;;35.45;21.80;;;3.00;99.90;;;;;;7340153;32;20183;-79
2022/11/19 05:03:33;;;;;;;32.65;21.33;;;3.00;99.90;;;;;;7319949;32;20194;-80
2022/11/19 05:07:35;;;;;;;34.90;21.27;;;3.00;99.90;;;;;;7336696;32;20168;-80
2022/11/19 05:11:37;;;;;;;32.97;20.10;;;3.00;99.90;;;;;;7333501;32;20225;-79
2022/11/19 05:15:56;;;;;;;35.78;21.42;;;3.00;99.90;;;;;;7347491;32;20111;-80
2022/11/19 05:19:59;;;;;;;34.45;22.60;;;3.00;99.90;;;;;;7337728;32;20164;-81
2022/11/19 05:24:00;;;;;;;29.87;21.05;;;3.20;99.90;;;;;;7344556;32;20481;-79
2022/11/19 05:28:02;;;;;;;29.02;20.40;;;2.90;99.90;;;;;;7348618;32;20140;-78
2022/11/19 05:32:04;;;;;;;28.80;20.20;;;2.90;99.90;;;;;;7321991;32;20270;-79
2022/11/19 05:36:06;;;;;;;29.52;20.65;;;3.00;99.90;;;;;;7340888;32;20160;-80
2022/11/19 05:40:08;;;;;;;30.45;21.42;;;3.00;99.90;;;;;;7340836;32;20527;-79
2022/11/19 05:44:10;;;;;;;33.30;21.37;;;2.90;99.90;;;;;;7332707;26;20096;-59
2022/11/19 05:48:12;;;;;;;30.73;21.35;;;2.80;99.90;;;;;;7324703;32;20141;-60
2022/11/19 05:52:13;;;;;;;33.78;22.45;;;2.80;99.90;;;;;;7332926;32;20586;-59
2022/11/19 05:56:15;;;;;;;32.53;21.20;;;2.80;99.90;;;;;;7334689;32;20095;-60
2022/11/19 06:00:17;;;;;;;35.63;21.45;;;2.80;99.90;;;;;;7330409;32;20112;-59
2022/11/19 06:04:19;;;;;;;37.15;21.87;;;2.90;99.90;;;;;;7324831;32;20130;-59
2022/11/19 06:08:21;;;;;;;33.10;21.58;;;2.80;99.90;;;;;;7324964;32;20201;-59
2022/11/19 06:12:22;;;;;;;32.65;21.45;;;2.80;99.90;;;;;;7331118;32;20108;-60
2022/11/19 06:16:24;;;;;;;33.53;21.40;;;2.80;99.90;;;;;;7327984;32;20122;-59
2022/11/19 06:20:26;;;;;;;33.60;21.58;;;2.80;99.90;;;;;;7329143;32;20104;-59
2022/11/19 06:24:28;;;;;;;33.25;21.05;;;2.90;99.90;;;;;;7328102;32;20128;-59
2022/11/19 06:28:30;;;;;;;32.28;21.17;;;2.80;99.90;;;;;;7327930;32;20108;-60
2022/11/19 06:32:32;;;;;;;32.90;21.60;;;2.70;99.90;;;;;;7324946;32;20191;-61
2022/11/19 06:36:33;;;;;;;33.05;20.25;;;2.80;99.90;;;;;;7331491;32;20122;-59
2022/11/19 06:40:44;;;;;;;33.90;22.08;;;2.70;99.90;;;;;;7329245;32;20134;-60
2022/11/19 06:44:46;;;;;;;36.42;21.73;;;2.70;99.90;;;;;;7328671;32;20108;-60
2022/11/19 06:48:47;;;;;;;35.50;23.02;;;2.60;99.90;;;;;;7325462;32;20268;-60
2022/11/19 06:52:49;;;;;;;33.22;20.65;;;2.60;99.90;;;;;;7328215;32;20121;-60
2022/11/19 06:56:51;;;;;;;38.40;21.90;;;2.50;99.90;;;;;;7325822;32;20190;-61
2022/11/19 07:00:52;;;;;;;38.95;24.63;;;2.50;99.90;;;;;;7325287;32;20107;-59
2022/11/19 07:04:54;;;;;;;36.67;23.33;;;2.50;99.90;;;;;;7330363;32;20122;-60
2022/11/19 07:08:56;;;;;;;37.70;24.15;;;2.40;99.90;;;;;;7326319;32;20260;-60
2022/11/19 07:12:57;;;;;;;36.63;23.30;;;2.40;99.90;;;;;;7326977;32;20499;-60
2022/11/19 07:16:59;;;;;;;36.75;23.65;;;2.40;99.90;;;;;;7328680;32;20100;-59
2022/11/19 07:21:01;;;;;;;40.55;25.17;;;2.50;99.90;;;;;;7328348;32;20122;-60
2022/11/19 07:25:02;;;;;;;39.83;24.90;;;2.40;99.90;;;;;;7331017;32;20138;-59
2022/11/19 07:29:06;;;;;;;41.30;24.77;;;2.40;99.90;;;;;;7329020;32;20849;-60
2022/11/19 07:33:08;;;;;;;40.53;23.52;;;2.50;99.90;;;;;;7327188;32;20185;-61
2022/11/19 07:37:09;;;;;;;41.10;24.10;;;2.50;99.90;;;;;;7328100;32;20118;-61
2022/11/19 07:45:31;;;;;;;39.70;23.52;;;2.50;99.90;;;;;;7325059;32;20183;-63
2022/11/19 07:49:33;;;;;;;38.05;23.50;;;2.50;99.90;;;;;;7327365;32;20162;-62
2022/11/19 07:53:35;;;;;;;37.42;23.73;;;2.60;99.90;;;;;;7329326;32;20602;-59
2022/11/19 07:57:36;;;;;;;37.85;22.37;;;2.70;99.90;;;;;;7320597;32;20182;-60
2022/11/19 08:01:38;;;;;;;35.28;22.35;;;2.70;99.90;;;;;;7329972;32;20202;-61
2022/11/19 08:05:40;;;;;;;37.45;23.50;;;2.70;99.90;;;;;;7319845;32;20100;-61
2022/11/19 08:09:42;;;;;;;37.22;22.27;;;2.80;99.90;;;;;;7321540;32;20563;-64
2022/11/19 08:13:44;;;;;;;40.95;23.08;;;2.70;99.90;;;;;;7319450;32;20450;-61
2022/11/19 08:22:05;;;;;;;33.53;20.77;;;2.60;99.90;;;;;;7322417;32;20557;-61
2022/11/19 08:26:07;;;;;;;35.30;20.85;;;2.70;99.90;;;;;;7333643;32;20107;-59
2022/11/19 08:30:09;;;;;;;33.17;20.52;;;2.70;99.90;;;;;;7329171;32;20099;-59
2022/11/19 08:34:11;;;;;;;32.78;20.60;;;2.70;99.90;;;;;;7334670;32;20398;-62
2022/11/19 08:38:13;;;;;;;34.22;21.40;;;2.80;99.90;;;;;;7339284;32;20714;-61
2022/11/19 08:46:36;;;;;;;30.80;19.98;;;2.70;99.90;;;;;;7336294;32;20125;-61
2022/11/19 08:50:40;;;;;;;32.85;18.92;;;2.60;99.90;;;;;;7331613;32;20174;-61
2022/11/19 08:54:42;;;;;;;31.33;19.48;;;2.80;99.90;;;;;;7331064;32;20217;-62
2022/11/19 08:58:44;;;;;;;31.10;19.42;;;2.60;99.90;;;;;;7334701;32;20123;-61
2022/11/19 09:02:46;;;;;;;30.10;18.33;;;2.70;99.90;;;;;;7336258;32;20133;-59
2022/11/19 09:06:47;;;;;;;26.92;17.80;;;2.60;99.90;;;;;;7336156;32;20172;-61
2022/11/19 09:10:49;;;;;;;37.65;19.08;;;2.50;99.90;;;;;;7334679;32;20111;-61
2022/11/19 09:14:51;;;;;;;31.55;18.52;;;2.50;99.90;;;;;;7338314;32;20116;-60
2022/11/19 09:18:52;;;;;;;27.10;18.15;;;2.50;99.90;;;;;;7310093;32;20202;-60
2022/11/19 09:22:54;;;;;;;28.58;17.92;;;2.60;99.90;;;;;;7331090;32;20195;-61
2022/11/19 09:26:56;;;;;;;28.52;18.25;;;2.60;99.90;;;;;;7330154;32;20269;-60
2022/11/19 09:31:07;;;;;;;29.10;18.30;;;2.40;99.90;;;;;;7326813;32;20238;-60
2022/11/19 09:35:08;;;;;;;30.77;18.58;;;2.50;99.90;;;;;;7335544;32;20108;-60
2022/11/19 09:39:10;;;;;;;28.83;18.90;;;2.40;99.90;;;;;;7334115;32;20104;-63
2022/11/19 09:43:46;;;;;;;29.85;18.80;;;2.50;99.90;;;;;;7331635;32;20209;-60
2022/11/19 09:48:02;;;;;;;27.52;17.42;;;2.40;99.90;;;;;;7335008;32;20108;-60
2022/11/19 09:52:11;;;;;;;27.92;18.62;;;2.30;99.90;;;;;;7333444;32;20784;-61
2022/11/19 09:56:18;;;;;;;34.92;19.77;;;2.40;99.90;;;;;;7329571;32;20217;-60
2022/11/19 10:00:24;;;;;;;29.37;19.33;;;2.30;99.90;;;;;;7330274;32;20451;-60
2022/11/19 10:04:30;;;;;;;30.48;19.00;;;2.40;99.90;;;;;;7318668;32;20202;-61
2022/11/19 10:08:44;;;;;;;31.90;20.27;;;2.40;99.90;;;;;;7333786;32;20111;-61
2022/11/19 10:13:10;;;;;;;34.28;20.42;;;2.50;99.90;;;;;;7325380;32;20116;-60
2022/11/19 10:17:22;;;;;;;25.60;17.10;;;2.50;99.90;;;;;;7331048;32;21539;-60
2022/11/19 10:21:37;;;;;;;26.05;17.87;;;2.40;99.90;;;;;;7302526;32;20555;-60
2022/11/19 10:25:43;;;;;;;28.92;18.45;;;2.50;99.90;;;;;;7327480;32;20233;-60
2022/11/19 10:29:47;;;;;;;28.73;18.70;;;2.50;99.90;;;;;;7326451;32;20123;-58
2022/11/19 10:33:54;;;;;;;30.33;18.17;;;2.30;99.90;;;;;;7330240;32;20634;-61
2022/11/19 10:38:03;;;;;;;28.20;17.90;;;2.30;99.90;;;;;;7325598;32;20165;-60
2022/11/19 10:42:04;;;;;;;26.45;17.25;;;2.30;99.90;;;;;;7322795;32;20143;-61
2022/11/19 10:46:09;;;;;;;26.98;17.62;;;2.20;99.90;;;;;;7324051;32;20138;-61
2022/11/19 10:50:20;;;;;;;27.10;17.17;;;2.20;99.90;;;;;;7323433;32;20523;-60
2022/11/19 10:54:26;;;;;;;26.02;16.67;;;2.20;99.90;;;;;;7326157;32;20115;-60
2022/11/19 10:58:38;;;;;;;28.10;17.77;;;2.30;99.90;;;;;;7324016;32;20245;-61
2022/11/19 11:02:51;;;;;;;30.08;17.33;;;2.30;99.90;;;;;;7319660;32;20206;-60
2022/11/19 11:07:01;;;;;;;25.33;15.77;;;2.40;99.90;;;;;;7325034;32;21076;-60
2022/11/19 11:11:03;;;;;;;24.83;15.75;;;2.30;99.90;;;;;;7319775;32;21735;-62
2022/11/19 11:15:25;;;;;;;25.02;15.77;;;2.40;99.90;;;;;;7317676;32;20133;-60
2022/11/19 11:19:29;;;;;;;24.95;17.02;;;2.20;99.90;;;;;;7326437;32;20112;-61
2022/11/19 11:23:31;;;;;;;23.15;15.70;;;2.30;99.90;;;;;;7330486;32;20134;-62
2022/11/19 11:27:34;;;;;;;24.37;16.15;;;2.40;99.90;;;;;;7327570;32;20232;-61
2022/11/19 11:31:37;;;;;;;21.60;15.10;;;2.40;99.90;;;;;;7330159;32;20325;-62
2022/11/19 11:35:44;;;;;;;24.20;15.52;;;2.40;99.90;;;;;;7325730;32;20154;-62
2022/11/19 11:39:51;;;;;;;24.60;15.52;;;2.40;99.90;;;;;;7316313;32;20107;-60
2022/11/19 11:44:00;;;;;;;;;;;2.50;99.90;;;;;;7323093;32;20190;-65
2022/11/19 11:48:07;;;;;;;21.23;14.75;;;2.60;99.90;;;;;;7326549;32;20007;-60
2022/11/19 11:52:27;;;;;;;21.92;14.68;;;2.80;99.90;;;;;;7321164;32;20591;-60
2022/11/19 11:56:29;;;;;;;22.67;14.70;;;2.90;99.90;;;;;;7324110;32;20542;-60
2022/11/19 12:00:41;;;;;;;21.83;14.18;;;3.00;99.90;;;;;;7322652;32;20222;-62
2022/11/19 12:04:43;;;;;;;19.83;13.95;;;2.90;99.90;;;;;;7319994;32;20711;-59
2022/11/19 12:08:50;;;;;;;19.45;13.77;;;3.00;99.90;;;;;;7322727;32;20127;-60
2022/11/19 12:13:20;;;;;;;20.77;14.32;;;3.10;99.90;;;;;;7321854;32;20131;-60
2022/11/19 12:17:44;;;;;;;21.05;14.27;;;3.20;99.90;;;;;;7325628;32;20130;-60
2022/11/19 12:22:05;;;;;;;20.73;13.70;;;3.50;99.90;;;;;;7317623;32;20129;-62
2022/11/19 12:26:17;;;;;;;19.95;13.10;;;3.40;99.90;;;;;;7331805;32;20138;-60
2022/11/19 12:30:21;;;;;;;19.40;12.63;;;3.40;99.90;;;;;;7328255;32;20112;-60
2022/11/19 12:34:22;;;;;;;16.42;12.07;;;3.50;99.90;;;;;;7326941;32;20198;-60
2022/11/19 12:38:52;;;;;;;20.05;13.80;;;3.20;99.90;;;;;;7324873;32;20516;-60
2022/11/19 12:43:01;;;;;;;18.15;12.40;;;3.40;99.90;;;;;;7329886;32;20490;-60
2022/11/19 12:47:44;;;;;;;15.77;10.88;;;3.40;99.90;;;;;;7327781;32;20190;-60
2022/11/19 12:52:12;;;;;;;17.40;11.65;;;3.50;99.90;;;;;;7330563;32;20107;-60
2022/11/19 12:56:58;;;;;;;16.48;11.70;;;3.40;99.90;;;;;;7330749;32;20249;-59
2022/11/19 13:01:08;;;;;;;16.33;11.40;;;3.40;99.90;;;;;;7318006;32;20092;-61
2022/11/19 13:05:18;;;;;;;19.12;12.35;;;3.40;99.90;;;;;;7324564;32;20135;-61
2022/11/19 13:09:24;;;;;;;16.58;10.75;;;3.40;99.90;;;;;;7332868;32;20111;-61
2022/11/19 13:13:28;;;;;;;13.25;10.55;;;3.60;99.90;;;;;;7313126;32;20233;-61
2022/11/19 13:17:36;;;;;;;16.25;11.60;;;3.70;99.90;;;;;;7319971;32;20480;-61
2022/11/19 13:21:53;;;;;;;14.50;10.40;;;3.70;99.90;;;;;;7322770;32;20142;-61
2022/11/19 13:26:03;;;;;;;13.27;10.07;;;3.70;99.90;;;;;;7318487;32;20545;-60
2022/11/19 13:30:17;;;;;;;14.25;10.35;;;3.70;99.90;;;;;;7331566;32;20249;-60
2022/11/19 13:34:27;;;;;;;16.17;10.85;;;3.60;99.90;;;;;;7321630;32;20223;-60
2022/11/19 13:38:43;;;;;;;14.32;10.68;;;3.60;99.90;;;;;;7323952;32;20149;-61
2022/11/19 13:47:34;;;;;;;15.52;10.57;;;3.60;99.90;;;;;;7322493;32;20107;-61
2022/11/19 13:51:55;;;;;;;16.35;10.75;;;3.50;99.90;;;;;;7334086;32;20115;-60
2022/11/19 13:55:58;;;;;;;15.45;10.95;;;3.50;99.90;;;;;;7330682;32;20508;-61
2022/11/19 14:00:21;;;;;;;14.43;10.35;;;3.50;99.90;;;;;;7335535;32;20107;-60
2022/11/19 14:04:50;;;;;;;13.07;9.60;;;3.50;99.90;;;;;;7332479;32;20287;-60
2022/11/19 14:09:14;;;;;;;14.82;10.13;;;3.40;99.90;;;;;;7333746;32;20120;-60
2022/11/19 14:13:39;;;;;;;14.45;9.90;;;3.50;99.90;;;;;;7335678;32;20134;-61
2022/11/19 14:27:16;;;;;;;13.02;9.38;;;3.40;99.90;;;;;;7337395;32;20226;-61
2022/11/19 14:31:19;;;;;;;16.12;9.50;;;3.30;99.90;;;;;;7329579;32;20124;-61
2022/11/19 14:35:26;;;;;;;12.43;9.65;;;3.20;99.90;;;;;;7331325;32;20107;-63
2022/11/19 14:39:39;;;;;;;16.25;9.35;;;3.30;99.90;;;;;;7334486;32;20133;-60
2022/11/19 14:44:09;;;;;;;13.43;9.18;;;3.10;99.90;;;;;;7334475;32;20118;-63
2022/11/19 14:48:11;;;;;;;12.23;9.43;;;3.10;99.90;;;;;;7331124;32;20482;-61
2022/11/19 14:52:44;;;;;;;14.25;9.93;;;3.10;99.90;;;;;;7329638;32;20456;-61
2022/11/19 14:56:58;;;;;;;15.90;10.60;;;3.00;99.90;;;;;;7327999;32;20183;-60
2022/11/19 15:01:08;;;;;;;13.93;10.07;;;3.10;99.90;;;;;;7330361;32;20107;-60
2022/11/19 15:05:39;;;;;;;15.02;9.63;;;3.00;99.90;;;;;;7317709;32;20143;-60
2022/11/19 15:10:05;;;;;;;14.57;10.18;;;2.90;99.90;;;;;;7312958;32;20633;-62
2022/11/19 15:14:36;;;;;;;14.93;9.82;;;2.90;99.90;;;;;;7333254;32;20103;-62
2022/11/19 15:18:40;;;;;;;13.82;9.13;;;2.90;99.90;;;;;;7334772;32;20103;-62
2022/11/19 15:23:09;;;;;;;13.73;10.00;;;2.90;99.90;;;;;;7325976;32;20173;-61
2022/11/19 15:27:48;;;;;;;14.87;9.60;;;2.90;99.90;;;;;;7325378;32;20206;-60
2022/11/19 15:32:34;;;;;;;13.93;9.00;;;2.90;99.90;;;;;;7325830;32;20130;-62
2022/11/19 15:36:40;;;;;;;14.73;9.57;;;2.80;99.90;;;;;;7330557;32;20116;-61
2022/11/19 15:40:43;;;;;;;13.35;9.32;;;2.70;99.90;;;;;;7330310;32;20527;-63
2022/11/19 15:44:55;;;;;;;13.50;9.82;;;2.60;99.90;;;;;;7335606;32;20111;-62
2022/11/19 15:49:11;;;;;;;12.52;8.95;;;2.60;99.90;;;;;;7332559;32;20524;-61
2022/11/19 15:53:20;;;;;;;13.85;9.60;;;2.60;99.90;;;;;;7337270;32;20216;-59
2022/11/19 15:57:26;;;;;;;13.43;9.25;;;2.60;99.90;;;;;;7330836;32;20214;-60
2022/11/19 16:01:30;;;;;;;13.82;8.95;;;2.50;99.90;;;;;;7333502;32;20107;-59
2022/11/19 16:05:32;;;;;;;13.27;8.68;;;2.60;99.90;;;;;;7336353;32;20700;-61
2022/11/19 16:09:34;;;;;;;14.27;9.50;;;2.70;99.90;;;;;;7334455;32;20119;-59
2022/11/19 16:17:56;;;;;;;12.32;9.30;;;2.60;99.90;;;;;;7326443;32;20133;-59
2022/11/19 16:22:02;;;;;;;13.25;9.43;;;2.50;99.90;;;;;;7334510;32;20133;-59
2022/11/19 16:26:04;;;;;;;14.73;9.10;;;2.60;99.90;;;;;;7332653;32;20609;-59
2022/11/19 16:30:14;;;;;;;12.27;8.85;;;2.50;99.90;;;;;;7333630;32;20245;-59
2022/11/19 16:34:21;;;;;;;13.52;9.07;;;2.40;99.90;;;;;;7336611;32;20106;-59
2022/11/19 16:38:27;;;;;;;14.18;9.38;;;2.40;99.90;;;;;;7331860;32;20248;-60
2022/11/19 16:42:31;;;;;;;14.27;9.80;;;2.30;99.90;;;;;;7328689;32;20137;-60
2022/11/19 16:46:34;;;;;;;14.57;10.07;;;2.40;99.90;;;;;;7325643;32;20154;-60
2022/11/19 16:50:36;;;;;;;14.35;9.85;;;2.40;99.90;;;;;;7334096;32;20483;-60
2022/11/19 16:54:47;;;;;;;14.65;10.00;;;2.30;99.90;;;;;;7331627;32;20547;-60
2022/11/19 16:58:58;;;;;;;15.93;10.10;;;2.30;99.90;;;;;;7325820;32;20149;-60
2022/11/19 17:03:15;;;;;;;13.65;9.73;;;2.30;99.90;;;;;;7337040;32;20104;-61
2022/11/19 17:07:22;;;;;;;22.57;14.57;;;2.30;99.90;;;;;;7335343;32;20467;-60
2022/11/19 17:16:17;;;;;;;17.98;11.30;;;2.30;99.90;;;;;;7329775;32;20237;-62
2022/11/19 17:20:31;;;;;;;15.20;10.45;;;2.20;99.90;;;;;;7334177;32;20119;-60
2022/11/19 17:24:41;;;;;;;15.15;9.65;;;2.20;99.90;;;;;;7334064;32;20135;-60
2022/11/19 17:28:46;;;;;;;15.18;10.27;;;2.20;99.90;;;;;;7332908;32;20216;-60
2022/11/19 17:33:00;;;;;;;17.17;11.65;;;2.20;99.90;;;;;;7327521;32;20134;-60
2022/11/19 17:37:06;;;;;;;19.30;12.27;;;2.30;99.90;;;;;;7330870;32;20130;-61
2022/11/19 17:41:11;;;;;;;15.70;10.23;;;2.30;99.90;;;;;;7332228;32;20115;-61
2022/11/19 17:45:12;;;;;;;16.65;10.55;;;2.20;99.90;;;;;;7332624;32;20254;-60
2022/11/19 17:49:14;;;;;;;15.50;10.73;;;2.30;99.90;;;;;;7331729;32;20115;-60
2022/11/19 17:53:20;;;;;;;16.35;11.25;;;2.20;99.90;;;;;;7328945;32;20111;-60
2022/11/19 17:57:21;;;;;;;17.15;10.90;;;2.30;99.90;;;;;;7332124;32;20131;-57
2022/11/19 18:01:23;;;;;;;16.50;10.95;;;2.30;99.90;;;;;;7327917;32;20198;-58
2022/11/19 18:05:27;;;;;;;17.70;11.45;;;2.40;99.90;;;;;;7316532;32;20694;-58
2022/11/19 18:09:28;;;;;;;16.83;10.43;;;2.50;99.90;;;;;;7327571;32;20849;-60
2022/11/19 18:13:35;;;;;;;17.52;11.80;;;2.50;99.90;;;;;;7332981;32;20271;-58
2022/11/19 18:17:37;;;;;;;18.95;12.68;;;2.50;99.90;;;;;;7320483;32;20236;-59
2022/11/19 18:21:40;;;;;;;17.25;11.40;;;2.50;99.90;;;;;;7332111;32;20099;-58
2022/11/19 18:25:42;;;;;;;18.17;12.20;;;2.50;99.90;;;;;;7331331;32;20115;-58
2022/11/19 18:29:44;;;;;;;18.87;12.43;;;2.50;99.90;;;;;;7334794;32;20190;-60
2022/11/19 18:33:49;;;;;;;16.73;12.00;;;2.60;99.90;;;;;;7331982;32;20115;-58
2022/11/19 18:37:51;;;;;;;16.12;11.65;;;2.40;99.90;;;;;;7314478;32;20104;-60
2022/11/19 18:41:52;;;;;;;16.08;11.68;;;2.40;99.90;;;;;;7327383;32;20234;-59
2022/11/19 18:45:54;;;;;;;16.52;11.75;;;2.50;99.90;;;;;;7326106;32;20567;-58
2022/11/19 18:49:56;;;;;;;18.95;12.13;;;2.50;99.90;;;;;;7328537;32;20116;-58
2022/11/19 18:53:57;;;;;;;18.92;11.90;;;2.60;99.90;;;;;;7332922;32;20115;-58
2022/11/19 18:57:59;;;;;;;18.15;12.30;;;2.40;99.90;;;;;;7328648;32;20175;-60
2022/11/19 19:02:01;;;;;;;19.30;12.57;;;2.40;99.90;;;;;;7324496;32;20221;-62
2022/11/19 19:06:05;;;;;;;19.17;12.43;;;2.30;99.90;;;;;;7330866;32;20223;-60
2022/11/19 19:10:07;;;;;;;20.50;14.52;;;2.30;99.90;;;;;;7330892;32;20134;-60
2022/11/19 19:14:09;;;;;;;18.23;12.65;;;2.20;99.90;;;;;;7323623;32;20115;-59
2022/11/19 19:18:11;;;;;;;20.45;12.82;;;2.10;99.90;;;;;;7327869;32;20119;-60
2022/11/19 19:22:12;;;;;;;19.60;12.20;;;2.10;99.90;;;;;;7328149;32;20129;-59
2022/11/19 19:26:15;;;;;;;23.70;14.32;;;2.00;99.90;;;;;;7324908;32;20210;-60
2022/11/19 19:30:17;;;;;;;19.83;13.10;;;1.90;99.90;;;;;;7314607;32;20107;-59
2022/11/19 19:34:19;;;;;;;26.58;13.40;;;1.90;99.90;;;;;;7333887;32;20138;-59
2022/11/19 19:38:21;;;;;;;25.25;15.50;;;1.80;99.90;;;;;;7330951;32;20553;-60
2022/11/19 19:42:22;;;;;;;27.23;16.10;;;1.80;99.90;;;;;;7334584;32;20130;-59
2022/11/19 19:46:24;;;;;;;21.27;14.20;;;1.80;99.90;;;;;;7326310;32;20112;-60
2022/11/19 19:50:26;;;;;;;17.55;11.93;;;1.80;99.90;;;;;;7331002;32;20218;-59
2022/11/19 19:54:27;;;;;;;19.52;12.68;;;1.80;99.90;;;;;;7329836;32;20143;-60
2022/11/19 19:58:29;;;;;;;19.73;12.55;;;1.80;99.90;;;;;;7318784;32;20157;-59
2022/11/19 20:02:31;;;;;;;20.55;12.98;;;1.80;99.90;;;;;;7327021;32;20130;-60
2022/11/19 20:06:34;;;;;;;20.95;12.93;;;1.60;99.90;;;;;;7323666;32;20538;-60
2022/11/19 20:10:36;;;;;;;19.23;12.57;;;1.70;99.90;;;;;;7329173;32;20147;-60
2022/11/19 20:14:38;;;;;;;19.12;12.35;;;1.80;99.90;;;;;;7329758;32;20394;-60
2022/11/19 20:18:41;;;;;;;22.77;14.43;;;1.80;99.90;;;;;;7325580;32;20219;-62
2022/11/19 20:22:42;;;;;;;22.45;13.43;;;1.80;99.90;;;;;;7332608;32;20145;-59
2022/11/19 20:26:44;;;;;;;21.37;13.68;;;1.80;99.90;;;;;;7332881;32;20284;-61
2022/11/19 20:30:46;;;;;;;23.42;14.27;;;1.70;99.90;;;;;;7334150;32;20807;-60
2022/11/19 20:34:48;;;;;;;20.17;12.65;;;1.70;99.90;;;;;;7323047;32;20119;-60
2022/11/19 20:38:50;;;;;;;20.15;13.15;;;1.80;99.90;;;;;;7336343;32;20107;-59
2022/11/19 20:47:12;;;;;;;20.02;13.32;;;1.70;99.90;;;;;;7334594;32;20173;-60
2022/11/19 20:51:19;;;;;;;21.12;12.98;;;1.70;99.90;;;;;;7333198;32;20249;-62
2022/11/19 20:55:21;;;;;;;20.52;12.60;;;1.60;99.90;;;;;;7314828;32;20103;-61
2022/11/19 20:59:24;;;;;;;20.52;13.18;;;1.80;99.90;;;;;;7334711;32;20142;-61
2022/11/19 21:03:26;;;;;;;19.75;13.38;;;1.80;99.90;;;;;;7333141;32;20111;-59
2022/11/19 21:07:28;;;;;;;21.23;13.65;;;1.70;99.90;;;;;;7326340;32;20166;-59
2022/11/19 21:11:31;;;;;;;21.33;13.40;;;1.60;99.90;;;;;;7334010;32;20479;-59
2022/11/19 21:15:34;;;;;;;21.33;12.95;;;1.50;99.90;;;;;;7332959;32;20486;-59
2022/11/19 21:19:36;;;;;;;22.05;13.20;;;1.60;99.90;;;;;;7322505;32;20143;-61
2022/11/19 21:23:38;;;;;;;19.73;12.68;;;1.70;99.90;;;;;;7333589;32;20135;-60
2022/11/19 21:27:40;;;;;;;19.58;12.73;;;1.70;99.90;;;;;;7330585;32;20129;-61
2022/11/19 21:31:47;;;;;;;20.75;13.18;;;1.60;99.90;;;;;;7332083;32;20137;-59
2022/11/19 21:35:48;;;;;;;19.27;12.95;;;1.50;99.90;;;;;;7329056;32;20108;-59
2022/11/19 21:39:50;;;;;;;21.25;12.90;;;1.40;99.90;;;;;;7328538;32;20129;-59
2022/11/19 21:43:52;;;;;;;25.02;13.45;;;1.40;99.90;;;;;;7331741;32;20510;-61
2022/11/19 21:47:53;;;;;;;20.12;13.38;;;1.30;99.90;;;;;;7332729;32;20112;-61
2022/11/19 21:51:55;;;;;;;21.52;12.93;;;1.20;99.90;;;;;;7336124;32;20107;-59
2022/11/19 21:55:57;;;;;;;20.23;12.88;;;1.10;99.90;;;;;;7333540;32;20111;-59